< < Back
Terminal Aerodrome Forecast


Current Version              Previous Versions:   1  2  3  4  5  6  7  8  9  

Terminal Aerodrome Forecast

603
FTUS44 KHUN 212320
TAFHSV
TAF
KHSV 212320Z 2200/2224 02004KT P6SM SKC
     FM221500 03010KT P6SM SKC=

Latest METAR

478
SAUS80 KWBC 222300 RRB
MTRHSV
METAR KHSV 222253Z 01007KT 10SM CLR 18/05 A3014 RMK AO2 SLP205
T01780050


USA.gov is the U.S. government's official web portal to all federal, state and local government web resources and services.